createdAt,value
2023-01-03T00:00:50.503Z,68.63
2023-01-03T00:03:17.253Z,68.93
2023-01-03T00:05:45.229Z,68.87
2023-01-03T00:08:12.212Z,69.59
2023-01-03T00:10:39.600Z,70.09
2023-01-03T00:13:06.257Z,69.26
2023-01-03T00:15:37.147Z,68.73
2023-01-03T00:18:04.285Z,69.69
2023-01-03T00:20:31.134Z,69.91
2023-01-03T00:22:59.855Z,70.30
2023-01-03T00:25:26.860Z,69.58
2023-01-03T00:27:53.806Z,69.74
2023-01-03T00:30:21.056Z,68.89
2023-01-03T00:32:47.847Z,68.67
2023-01-03T00:35:14.514Z,68.77
2023-01-03T00:37:41.230Z,68.73
2023-01-03T00:40:08.427Z,68.17
2023-01-03T00:42:55.083Z,67.83
2023-01-03T00:45:24.400Z,68.10
2023-01-03T00:47:52.292Z,67.92
2023-01-03T00:50:18.932Z,68.16
2023-01-03T00:52:45.596Z,68.41
2023-01-03T00:55:12.229Z,68.50
2023-01-03T00:57:39.052Z,67.87
2023-01-03T01:00:06.180Z,68.32
2023-01-03T01:02:33.078Z,68.42
2023-01-03T01:04:59.905Z,67.81
2023-01-03T01:07:26.690Z,67.85
2023-01-03T01:09:53.371Z,67.81
2023-01-03T01:12:20.089Z,68.76
2023-01-03T01:14:46.753Z,68.14
2023-01-03T01:17:16.620Z,68.54
2023-01-03T01:19:47.393Z,68.89
2023-01-03T01:22:14.087Z,68.69
2023-01-03T01:24:41.450Z,68.59
2023-01-03T01:27:08.065Z,68.22
2023-01-03T01:29:35.268Z,68.26
2023-01-03T01:32:03.060Z,68.94
2023-01-03T01:34:32.248Z,68.68
2023-01-03T01:36:58.967Z,69.70
2023-01-03T01:39:27.533Z,69.62
2023-01-03T01:42:20.207Z,69.45
2023-01-03T01:44:52.117Z,69.93
2023-01-03T01:47:28.031Z,70.08
2023-01-03T01:50:15.742Z,69.61
2023-01-03T01:52:54.356Z,69.50
2023-01-03T01:55:26.107Z,69.36
2023-01-03T01:57:53.904Z,69.71
2023-01-03T02:00:21.367Z,69.46
2023-01-03T02:02:51.931Z,69.92
2023-01-03T02:05:20.072Z,69.86
2023-01-03T02:07:51.741Z,70.00
2023-01-03T02:10:43.898Z,69.85
2023-01-03T02:13:48.274Z,69.52
2023-01-03T02:16:23.899Z,70.46
2023-01-03T02:19:17.966Z,69.97
2023-01-03T02:21:56.694Z,69.44
2023-01-03T02:24:45.072Z,69.44
2023-01-03T02:27:49.159Z,69.02
2023-01-03T02:30:40.775Z,68.79
2023-01-03T02:33:32.045Z,68.86
2023-01-03T02:36:22.555Z,68.69
2023-01-03T02:39:01.556Z,68.56
2023-01-03T02:42:14.332Z,68.06
2023-01-03T02:44:55.234Z,68.36
2023-01-03T02:47:26.956Z,68.14
2023-01-03T02:49:58.248Z,68.05
2023-01-03T02:52:29.188Z,67.61
2023-01-03T02:55:02.297Z,67.97
2023-01-03T02:57:45.735Z,67.90
2023-01-03T03:00:16.492Z,67.27
2023-01-03T03:02:51.820Z,67.51
2023-01-03T03:05:24.595Z,68.50
2023-01-03T03:07:52.365Z,68.13
2023-01-03T03:10:38.118Z,68.33
2023-01-03T03:13:16.527Z,68.34
2023-01-03T03:15:53.833Z,67.70
2023-01-03T03:18:58.183Z,67.76
2023-01-03T03:21:51.475Z,67.91
2023-01-03T03:24:43.368Z,67.51
2023-01-03T03:27:31.700Z,67.39
2023-01-03T03:30:02.880Z,66.92
2023-01-03T03:32:32.740Z,67.13
2023-01-03T03:35:03.181Z,67.41
2023-01-03T03:37:33.156Z,66.69
2023-01-03T03:40:18.483Z,67.29
2023-01-03T03:43:09.934Z,67.10
2023-01-03T03:45:51.037Z,67.33
2023-01-03T03:48:58.407Z,67.52
2023-01-03T03:51:30.244Z,66.88
2023-01-03T03:54:00.867Z,67.57
2023-01-03T03:56:31.874Z,68.66
2023-01-03T03:59:02.646Z,68.06
2023-01-03T04:01:30.908Z,67.21
2023-01-03T04:04:03.720Z,66.99
2023-01-03T04:06:43.993Z,67.40
2023-01-03T04:09:11.143Z,66.73
2023-01-03T04:11:37.844Z,66.85
2023-01-03T04:14:04.539Z,66.86
2023-01-03T04:16:31.359Z,67.22
2023-01-03T04:18:58.191Z,66.49
2023-01-03T04:21:25.133Z,66.74
2023-01-03T04:23:51.803Z,66.50
2023-01-03T04:26:18.541Z,66.58
2023-01-03T04:28:45.212Z,66.30
2023-01-03T04:31:12.008Z,66.59
2023-01-03T04:33:38.759Z,66.15
2023-01-03T04:36:05.596Z,65.98
2023-01-03T04:38:32.360Z,66.03
2023-01-03T04:41:06.573Z,66.18
2023-01-03T04:43:52.339Z,66.29
2023-01-03T04:46:19.298Z,65.92
2023-01-03T04:48:46.005Z,66.12
2023-01-03T04:51:12.701Z,65.75
2023-01-03T04:53:39.358Z,65.62
2023-01-03T04:56:06.213Z,65.50
2023-01-03T04:58:32.850Z,65.47
2023-01-03T05:01:01.687Z,65.82
2023-01-03T05:03:29.558Z,65.33
2023-01-03T05:06:05.913Z,65.89
2023-01-03T05:08:33.092Z,65.70
2023-01-03T05:10:59.753Z,65.45
2023-01-03T05:13:26.509Z,65.19
2023-01-03T05:15:53.203Z,65.38
2023-01-03T05:18:19.864Z,65.49
2023-01-03T05:21:05.412Z,65.33
2023-01-03T05:23:50.693Z,65.61
2023-01-03T05:26:20.561Z,65.13
2023-01-03T05:28:52.483Z,64.71
2023-01-03T05:31:20.242Z,64.67
2023-01-03T05:33:47.073Z,64.96
2023-01-03T05:36:14.847Z,65.42
2023-01-03T05:38:43.038Z,64.64
2023-01-03T05:41:10.095Z,65.13
2023-01-03T05:43:36.855Z,64.80
2023-01-03T05:46:03.679Z,64.77
2023-01-03T05:48:30.396Z,65.59
2023-01-03T05:50:58.428Z,64.83
2023-01-03T05:53:25.380Z,64.96
2023-01-03T05:55:52.594Z,65.49
2023-01-03T05:58:19.764Z,65.25
2023-01-03T06:00:46.479Z,65.46
2023-01-03T06:03:13.493Z,65.93
2023-01-03T06:05:46.072Z,66.07
2023-01-03T06:08:16.912Z,65.66
2023-01-03T06:10:43.650Z,65.51
2023-01-03T06:13:10.491Z,65.89
2023-01-03T06:15:37.167Z,65.32
2023-01-03T06:18:04.117Z,65.26
2023-01-03T06:20:30.826Z,64.91
2023-01-03T06:22:57.908Z,65.17
2023-01-03T06:25:25.001Z,65.13
2023-01-03T06:27:51.657Z,65.46
2023-01-03T06:30:18.512Z,65.04
2023-01-03T06:32:45.265Z,64.90
2023-01-03T06:35:12.468Z,64.90
2023-01-03T06:37:39.218Z,64.81
2023-01-03T06:40:06.835Z,64.30
2023-01-03T06:42:40.183Z,64.73
2023-01-03T06:45:26.240Z,64.83
2023-01-03T06:48:11.623Z,64.72
2023-01-03T06:50:58.990Z,64.84
2023-01-03T06:53:30.032Z,64.88
2023-01-03T06:55:57.560Z,65.47
2023-01-03T06:58:24.797Z,65.36
2023-01-03T07:00:52.566Z,65.38
2023-01-03T07:03:19.318Z,66.15
2023-01-03T07:05:46.032Z,65.82
2023-01-03T07:08:12.647Z,65.38
2023-01-03T07:10:41.060Z,65.81
2023-01-03T07:13:26.217Z,65.20
2023-01-03T07:15:52.973Z,65.30
2023-01-03T07:18:20.928Z,65.70
2023-01-03T07:20:47.642Z,65.34
2023-01-03T07:23:14.451Z,65.92
2023-01-03T07:25:41.806Z,65.69
2023-01-03T07:28:12.989Z,65.99
2023-01-03T07:30:42.773Z,65.55
2023-01-03T07:33:10.988Z,65.51
2023-01-03T07:35:38.201Z,65.83
2023-01-03T07:38:06.193Z,64.83
2023-01-03T07:40:33.437Z,64.93
2023-01-03T07:43:18.749Z,65.56
2023-01-03T07:45:46.094Z,65.43
2023-01-03T07:48:13.533Z,65.40
2023-01-03T07:50:40.375Z,65.55
2023-01-03T07:53:08.820Z,65.65
2023-01-03T07:55:37.369Z,65.31
2023-01-03T07:58:04.424Z,65.04
2023-01-03T08:00:31.443Z,65.55
2023-01-03T08:02:58.253Z,65.91
2023-01-03T08:05:25.644Z,65.45
2023-01-03T08:07:53.277Z,65.07
2023-01-03T08:10:39.442Z,65.36
2023-01-03T08:13:18.674Z,65.45
2023-01-03T08:15:52.467Z,65.40
2023-01-03T08:18:22.000Z,65.56
2023-01-03T08:20:49.150Z,65.82
2023-01-03T08:23:15.805Z,65.32
2023-01-03T08:25:42.513Z,65.84
2023-01-03T08:28:10.894Z,65.33
2023-01-03T08:30:42.703Z,65.20
2023-01-03T08:33:12.270Z,64.96
2023-01-03T08:35:42.600Z,64.94
2023-01-03T08:38:14.243Z,65.30
2023-01-03T08:40:42.658Z,64.84
2023-01-03T08:43:12.297Z,64.60
2023-01-03T08:45:39.054Z,64.74
2023-01-03T08:48:08.343Z,64.51
2023-01-03T08:50:35.077Z,64.66
2023-01-03T08:53:01.878Z,64.31
2023-01-03T08:55:28.541Z,64.28
2023-01-03T08:57:55.249Z,64.11
2023-01-03T09:00:21.985Z,64.16
2023-01-03T09:02:48.758Z,64.12
2023-01-03T09:05:16.956Z,64.12
2023-01-03T09:07:43.883Z,64.16
2023-01-03T09:10:11.573Z,63.48
2023-01-03T09:12:38.174Z,63.76
2023-01-03T09:15:05.334Z,64.21
2023-01-03T09:17:32.083Z,64.39
2023-01-03T09:19:58.806Z,64.85
2023-01-03T09:22:25.462Z,64.57
2023-01-03T09:24:52.191Z,64.47
2023-01-03T09:27:18.929Z,64.40
2023-01-03T09:29:45.620Z,63.74
2023-01-03T09:32:12.342Z,63.60
2023-01-03T09:34:39.077Z,64.47
2023-01-03T09:37:06.215Z,64.92
2023-01-03T09:39:33.380Z,64.24
2023-01-03T09:42:19.870Z,64.30
2023-01-03T09:44:47.103Z,63.98
2023-01-03T09:47:21.298Z,64.98
2023-01-03T09:50:18.777Z,64.60
2023-01-03T09:52:54.226Z,64.88
2023-01-03T09:55:49.205Z,65.26
2023-01-03T09:58:34.718Z,65.33
2023-01-03T10:01:35.670Z,65.15
2023-01-03T10:04:26.494Z,64.77
2023-01-03T10:07:13.533Z,64.71
2023-01-03T10:09:42.854Z,64.47
2023-01-03T10:12:27.747Z,64.70
2023-01-03T10:15:25.318Z,64.79
2023-01-03T10:18:27.822Z,64.93
2023-01-03T10:21:06.261Z,63.63
2023-01-03T10:23:34.416Z,64.40
2023-01-03T10:26:01.293Z,64.11
2023-01-03T10:28:47.768Z,64.06
2023-01-03T10:31:20.306Z,63.97
2023-01-03T10:33:49.555Z,64.13
2023-01-03T10:36:18.657Z,63.84
2023-01-03T10:38:52.622Z,63.61
2023-01-03T10:41:29.750Z,62.78
2023-01-03T10:44:01.391Z,62.81
2023-01-03T10:46:29.853Z,62.38
2023-01-03T10:49:29.530Z,61.72
2023-01-03T10:52:02.668Z,62.67
2023-01-03T10:54:51.554Z,62.20
2023-01-03T10:57:57.177Z,62.36
2023-01-03T11:00:35.785Z,61.97
2023-01-03T11:03:16.257Z,62.10
2023-01-03T11:05:46.611Z,63.02
2023-01-03T11:08:15.361Z,62.64
2023-01-03T11:11:00.751Z,62.94
2023-01-03T11:13:40.251Z,62.53
2023-01-03T11:16:18.922Z,63.17
2023-01-03T11:19:00.906Z,63.10
2023-01-03T11:21:39.818Z,63.14
2023-01-03T11:24:46.387Z,63.05
2023-01-03T11:27:27.349Z,62.87
2023-01-03T11:30:32.303Z,62.31
2023-01-03T11:33:29.598Z,62.89
2023-01-03T11:36:24.281Z,63.37
2023-01-03T11:39:11.019Z,63.07
2023-01-03T11:41:53.305Z,63.78
2023-01-03T11:44:27.563Z,64.07
2023-01-03T11:47:19.167Z,63.52
2023-01-03T11:50:07.469Z,63.78
2023-01-03T11:52:42.977Z,63.62
2023-01-03T11:55:42.404Z,64.42
2023-01-03T11:58:30.928Z,64.26
2023-01-03T12:01:19.941Z,63.94
2023-01-03T12:04:05.494Z,64.86
2023-01-03T12:07:46.269Z,64.33
2023-01-03T12:10:17.378Z,64.41
2023-01-03T12:12:56.238Z,64.10
2023-01-03T12:15:46.427Z,65.49
2023-01-03T12:18:37.530Z,64.70
2023-01-03T12:21:44.572Z,64.47
2023-01-03T12:24:34.399Z,64.40
2023-01-03T12:27:14.615Z,64.78
2023-01-03T12:30:19.863Z,64.75
2023-01-03T12:32:57.062Z,64.69
2023-01-03T12:35:47.755Z,65.08
2023-01-03T12:38:21.334Z,64.84
2023-01-03T12:40:58.283Z,65.55
2023-01-03T12:43:53.145Z,65.84
2023-01-03T12:46:26.108Z,66.00
2023-01-03T12:49:06.939Z,66.72
2023-01-03T12:51:35.471Z,66.30
2023-01-03T12:54:11.267Z,66.38
2023-01-03T12:56:52.828Z,66.48
2023-01-03T12:59:54.871Z,66.14
2023-01-03T13:02:44.097Z,66.28
2023-01-03T13:05:13.629Z,65.85
2023-01-03T13:07:44.995Z,65.89
2023-01-03T13:10:17.680Z,65.83
2023-01-03T13:12:50.528Z,64.65
2023-01-03T13:15:23.069Z,64.66
2023-01-03T13:17:50.016Z,64.68
2023-01-03T13:20:27.436Z,65.11
2023-01-03T13:22:57.930Z,63.49
2023-01-03T13:25:42.355Z,63.35
2023-01-03T13:28:18.287Z,62.25
2023-01-03T13:30:45.177Z,62.31
2023-01-03T13:33:11.826Z,61.58
2023-01-03T13:35:44.811Z,61.19
2023-01-03T13:38:24.097Z,61.69
2023-01-03T13:43:47.152Z,61.22
2023-01-03T13:46:21.726Z,61.72
2023-01-03T13:49:01.813Z,61.74
2023-01-03T13:51:40.968Z,61.04
2023-01-03T13:54:13.573Z,61.74
2023-01-03T13:56:43.093Z,61.16
2023-01-03T13:59:18.885Z,61.16
2023-01-03T14:01:55.400Z,60.75
2023-01-03T14:04:37.414Z,60.68
2023-01-03T14:07:19.057Z,60.21
2023-01-03T14:10:10.475Z,60.17
2023-01-03T14:13:08.791Z,60.47
2023-01-03T14:15:35.797Z,60.81
2023-01-03T14:18:15.224Z,60.53
2023-01-03T14:20:51.951Z,60.60
2023-01-03T14:23:58.558Z,61.21
2023-01-03T14:26:18.430Z,61.01
2023-01-03T14:28:51.610Z,60.55
2023-01-03T14:31:21.632Z,60.46
2023-01-03T14:33:58.034Z,60.39
2023-01-03T14:36:24.808Z,60.55
2023-01-03T14:38:58.722Z,59.99
2023-01-03T14:41:37.756Z,60.30
2023-01-03T14:44:16.174Z,60.30
2023-01-03T14:46:53.249Z,60.75
2023-01-03T14:49:41.763Z,60.66
2023-01-03T14:52:21.027Z,60.00
2023-01-03T14:54:51.972Z,60.41
2023-01-03T14:57:21.652Z,60.44
2023-01-03T14:59:49.152Z,60.02
2023-01-03T15:02:16.512Z,60.12
2023-01-03T15:04:45.620Z,60.10
2023-01-03T15:07:28.785Z,60.20
2023-01-03T15:10:07.735Z,60.71
2023-01-03T15:12:38.725Z,61.03
2023-01-03T15:15:22.701Z,60.76
2023-01-03T15:17:53.278Z,60.88
2023-01-03T15:20:33.412Z,61.21
2023-01-03T15:23:00.392Z,61.60
2023-01-03T15:25:39.306Z,61.97
2023-01-03T15:28:25.143Z,61.74
2023-01-03T15:30:53.467Z,62.29
2023-01-03T15:33:33.393Z,62.00
2023-01-03T15:36:06.341Z,61.84
2023-01-03T15:38:41.945Z,61.63
2023-01-03T15:41:14.987Z,61.45
2023-01-03T15:43:42.457Z,61.97
2023-01-03T15:46:20.128Z,61.71
2023-01-03T15:48:54.654Z,62.00
2023-01-03T15:51:21.397Z,62.15
2023-01-03T15:53:48.163Z,61.85
2023-01-03T15:56:21.994Z,61.97
2023-01-03T15:58:50.920Z,62.40
2023-01-03T16:01:20.175Z,62.42
2023-01-03T16:03:49.385Z,62.41
2023-01-03T16:06:16.710Z,62.38
2023-01-03T16:08:44.080Z,62.67
2023-01-03T16:11:33.344Z,63.03
2023-01-03T16:14:04.947Z,63.61
2023-01-03T16:16:35.155Z,63.49
2023-01-03T16:19:04.662Z,63.51
2023-01-03T16:21:31.959Z,64.06
2023-01-03T16:23:59.048Z,64.36
2023-01-03T16:26:25.971Z,64.36
2023-01-03T16:28:52.663Z,64.91
2023-01-03T16:31:26.252Z,64.87
2023-01-03T16:33:53.042Z,64.83
2023-01-03T16:36:42.655Z,65.09
2023-01-03T16:39:17.995Z,64.99
2023-01-03T16:42:05.785Z,65.36
2023-01-03T16:44:34.649Z,65.19
2023-01-03T16:47:02.623Z,65.22
2023-01-03T16:49:32.264Z,65.35
2023-01-03T16:51:59.094Z,65.04
2023-01-03T16:54:25.786Z,64.98
2023-01-03T16:56:52.514Z,64.90
2023-01-03T16:59:21.480Z,65.39
2023-01-03T17:01:50.059Z,65.14
2023-01-03T17:04:17.280Z,64.95
2023-01-03T17:06:44.625Z,65.11
2023-01-03T17:09:16.850Z,64.71
2023-01-03T17:11:44.688Z,64.79
2023-01-03T17:14:17.414Z,65.16
2023-01-03T17:16:44.531Z,65.25
2023-01-03T17:20:01.537Z,65.36
2023-01-03T17:22:23.150Z,65.64
2023-01-03T17:24:51.785Z,65.42
2023-01-03T17:27:18.374Z,65.26
2023-01-03T17:29:47.727Z,65.24
2023-01-03T17:32:21.040Z,65.16
2023-01-03T17:34:47.965Z,64.90
2023-01-03T17:37:22.608Z,64.72
2023-01-03T17:39:55.789Z,64.49
2023-01-03T17:42:24.244Z,64.53
2023-01-03T17:45:09.682Z,64.35
2023-01-03T17:48:00.556Z,64.23
2023-01-03T17:50:29.723Z,64.40
2023-01-03T17:52:58.508Z,64.37
2023-01-03T17:55:28.841Z,64.17
2023-01-03T17:57:57.060Z,64.11
2023-01-03T18:00:27.229Z,63.91
2023-01-03T18:02:55.438Z,63.95
2023-01-03T18:05:28.260Z,64.42
2023-01-03T18:08:00.579Z,64.29
2023-01-03T18:10:45.292Z,64.21
2023-01-03T18:13:22.814Z,63.91
2023-01-03T18:15:50.513Z,63.96
2023-01-03T18:18:18.849Z,63.73
2023-01-03T18:20:46.323Z,63.66
2023-01-03T18:23:25.377Z,63.56
2023-01-03T18:25:52.849Z,63.74
2023-01-03T18:28:24.627Z,63.56
2023-01-03T18:30:52.582Z,63.99
2023-01-03T18:33:19.795Z,63.85
2023-01-03T18:35:46.856Z,63.91
2023-01-03T18:38:25.767Z,64.61
2023-01-03T18:40:56.006Z,64.52
2023-01-03T18:43:27.419Z,64.26
2023-01-03T18:45:54.304Z,64.22
2023-01-03T18:48:22.654Z,64.53
2023-01-03T18:50:57.934Z,64.25
2023-01-03T18:53:28.726Z,64.67
2023-01-03T18:55:55.660Z,64.61
2023-01-03T18:58:35.458Z,64.49
2023-01-03T19:01:02.808Z,64.78
2023-01-03T19:03:32.251Z,64.60
2023-01-03T19:06:02.889Z,65.09
2023-01-03T19:08:32.697Z,65.29
2023-01-03T19:11:05.803Z,65.89
2023-01-03T19:13:49.943Z,65.67
2023-01-03T19:16:23.591Z,66.05
2023-01-03T19:18:51.511Z,65.84
2023-01-03T19:21:20.448Z,65.79
2023-01-03T19:24:09.054Z,66.39
2023-01-03T19:26:43.387Z,66.40
2023-01-03T19:29:19.803Z,66.40
2023-01-03T19:31:49.050Z,65.84
2023-01-03T19:34:22.168Z,66.91
2023-01-03T19:36:49.287Z,67.28
2023-01-03T19:39:22.371Z,67.50
2023-01-03T19:42:14.148Z,67.22
2023-01-03T19:44:41.817Z,67.07
2023-01-03T19:47:20.624Z,67.30
2023-01-03T19:49:48.392Z,67.26
2023-01-03T19:52:16.462Z,67.12
2023-01-03T19:54:43.753Z,66.75
2023-01-03T19:57:21.918Z,65.94
2023-01-03T19:59:53.213Z,66.00
2023-01-03T20:02:40.188Z,65.88
2023-01-03T20:05:20.302Z,66.07
2023-01-03T20:07:47.902Z,65.97
2023-01-03T20:10:16.502Z,66.40
2023-01-03T20:12:43.595Z,66.50
2023-01-03T20:15:46.613Z,66.34
2023-01-03T20:18:23.531Z,66.50
2023-01-03T20:20:50.998Z,66.35
2023-01-03T20:23:18.153Z,66.14
2023-01-03T20:25:45.416Z,66.57
2023-01-03T20:28:29.018Z,66.62
2023-01-03T20:30:59.725Z,66.98
2023-01-03T20:33:27.319Z,67.26
2023-01-03T20:36:12.584Z,67.29
2023-01-03T20:38:43.443Z,67.42
2023-01-03T20:41:13.142Z,67.31
2023-01-03T20:43:40.617Z,67.43
2023-01-03T20:46:14.853Z,67.72
2023-01-03T20:48:42.052Z,67.84
2023-01-03T20:51:12.144Z,68.08
2023-01-03T20:53:42.822Z,67.72
2023-01-03T20:56:13.607Z,67.67
2023-01-03T20:58:40.487Z,67.39
2023-01-03T21:01:08.143Z,67.42
2023-01-03T21:03:36.584Z,67.33
2023-01-03T21:06:13.070Z,67.57
2023-01-03T21:08:54.699Z,67.82
2023-01-03T21:11:29.978Z,68.34
2023-01-03T21:13:58.674Z,68.69
2023-01-03T21:16:46.387Z,68.42
2023-01-03T21:19:16.144Z,68.41
2023-01-03T21:21:44.744Z,69.05
2023-01-03T21:24:12.746Z,69.88
2023-01-03T21:26:40.085Z,69.29
2023-01-03T21:29:07.065Z,69.36
2023-01-03T21:31:34.727Z,68.92
2023-01-03T21:34:03.890Z,68.52
2023-01-03T21:36:33.186Z,69.13
2023-01-03T21:39:01.308Z,69.03
2023-01-03T21:41:33.690Z,69.05
2023-01-03T21:44:03.390Z,68.41
2023-01-03T21:46:30.713Z,68.45
2023-01-03T21:48:58.004Z,68.35
2023-01-03T21:51:35.411Z,68.71
2023-01-03T21:54:09.442Z,69.10
2023-01-03T21:56:45.495Z,69.01
2023-01-03T21:59:14.755Z,69.11
2023-01-03T22:02:02.719Z,69.26
2023-01-03T22:04:30.021Z,69.22
2023-01-03T22:07:00.452Z,69.35
2023-01-03T22:09:46.935Z,69.77
2023-01-03T22:12:15.866Z,70.09
2023-01-03T22:14:44.775Z,70.21
2023-01-03T22:17:11.506Z,70.11
2023-01-03T22:19:38.338Z,69.94
2023-01-03T22:22:05.100Z,69.94
2023-01-03T22:24:31.802Z,69.64
2023-01-03T22:26:59.722Z,69.74
2023-01-03T22:29:26.442Z,69.60
2023-01-03T22:31:53.170Z,69.69
2023-01-03T22:34:19.849Z,70.95
2023-01-03T22:36:46.554Z,70.98
2023-01-03T22:39:13.160Z,70.58
2023-01-03T22:41:39.840Z,71.54
2023-01-03T22:44:06.543Z,72.80
2023-01-03T22:46:33.153Z,71.25
2023-01-03T22:49:00.061Z,70.88
2023-01-03T22:51:26.810Z,70.34
2023-01-03T22:53:53.492Z,70.55
2023-01-03T22:56:20.120Z,70.58
2023-01-03T22:58:46.861Z,70.17
2023-01-03T23:01:17.918Z,69.75
2023-01-03T23:03:46.347Z,70.14
2023-01-03T23:06:15.924Z,70.20
2023-01-03T23:08:42.951Z,69.50
2023-01-03T23:11:35.116Z,71.25
2023-01-03T23:14:04.530Z,70.45
2023-01-03T23:16:32.150Z,70.30
2023-01-03T23:19:01.787Z,69.75
2023-01-03T23:21:28.753Z,70.23
2023-01-03T23:23:55.471Z,69.87
2023-01-03T23:26:22.447Z,70.21
2023-01-03T23:28:49.161Z,69.67
2023-01-03T23:31:15.835Z,69.25
2023-01-03T23:33:42.566Z,69.58
2023-01-03T23:36:13.138Z,68.79
2023-01-03T23:38:39.890Z,68.29
2023-01-03T23:41:09.308Z,68.33
2023-01-03T23:43:36.798Z,68.70
2023-01-03T23:46:05.409Z,68.09
2023-01-03T23:48:32.576Z,69.19
2023-01-03T23:51:04.199Z,68.77
2023-01-03T23:53:31.105Z,68.70
2023-01-03T23:55:58.582Z,68.75
2023-01-03T23:58:25.473Z,68.24
